createdAt,value
2022-09-16T00:01:12.781Z,16.30
2022-09-16T00:03:41.454Z,16.30
2022-09-16T00:06:19.471Z,16.30
2022-09-16T00:08:47.727Z,16.20
2022-09-16T00:11:15.743Z,16.10
2022-09-16T00:13:45.404Z,16.10
2022-09-16T00:16:19.706Z,16.00
2022-09-16T00:18:48.284Z,15.90
2022-09-16T00:21:16.237Z,15.90
2022-09-16T00:23:44.202Z,15.90
2022-09-16T00:26:12.129Z,16.00
2022-09-16T00:28:40.040Z,16.00
2022-09-16T00:31:09.990Z,16.10
2022-09-16T00:33:37.965Z,16.00
2022-09-16T00:36:07.991Z,16.00
2022-09-16T00:38:36.020Z,16.10
2022-09-16T00:41:04.797Z,16.10
2022-09-16T00:43:52.555Z,16.10
2022-09-16T00:46:27.272Z,16.20
2022-09-16T00:48:55.500Z,16.10
2022-09-16T00:51:25.320Z,16.20
2022-09-16T00:53:59.854Z,16.20
2022-09-16T00:56:30.519Z,16.00
2022-09-16T00:59:06.232Z,15.90
2022-09-16T01:01:35.692Z,15.80
2022-09-16T01:04:07.526Z,15.80
2022-09-16T01:06:39.783Z,15.90
2022-09-16T01:09:07.952Z,16.00
2022-09-16T01:11:35.885Z,16.00
2022-09-16T01:14:19.304Z,15.90
2022-09-16T01:16:58.224Z,15.90
2022-09-16T01:19:42.413Z,15.90
2022-09-16T01:22:21.963Z,15.90
2022-09-16T01:25:01.030Z,16.00
2022-09-16T01:27:46.936Z,16.00
2022-09-16T01:30:56.968Z,15.90
2022-09-16T01:33:37.608Z,15.90
2022-09-16T01:36:17.286Z,15.80
2022-09-16T01:39:08.259Z,15.80
2022-09-16T01:41:50.349Z,15.80
2022-09-16T01:44:26.816Z,15.90
2022-09-16T01:47:03.188Z,15.90
2022-09-16T01:49:42.014Z,16.00
2022-09-16T01:52:21.326Z,15.90
2022-09-16T01:54:53.905Z,15.90
2022-09-16T01:57:26.914Z,15.90
2022-09-16T01:59:58.964Z,16.00
2022-09-16T02:02:33.342Z,15.90
2022-09-16T02:05:06.012Z,15.90
2022-09-16T02:07:36.174Z,15.90
2022-09-16T02:10:11.614Z,15.90
2022-09-16T02:12:43.388Z,15.80
2022-09-16T02:15:18.729Z,15.90
2022-09-16T02:17:51.582Z,15.80
2022-09-16T02:20:25.308Z,15.80
2022-09-16T02:22:57.286Z,15.70
2022-09-16T02:25:25.577Z,15.70
2022-09-16T02:27:55.052Z,15.60
2022-09-16T02:30:24.313Z,15.60
2022-09-16T02:32:59.500Z,15.60
2022-09-16T02:35:29.216Z,15.50
2022-09-16T02:38:00.868Z,15.60
2022-09-16T02:40:33.282Z,15.60
2022-09-16T02:43:01.738Z,15.50
2022-09-16T02:45:37.358Z,15.50
2022-09-16T02:48:12.939Z,15.50
2022-09-16T02:50:47.451Z,15.50
2022-09-16T02:53:28.816Z,15.50
2022-09-16T02:56:00.729Z,15.60
2022-09-16T02:58:28.696Z,15.60
2022-09-16T03:00:58.332Z,15.60
2022-09-16T03:03:27.702Z,15.60
2022-09-16T03:06:18.567Z,15.70
2022-09-16T03:08:47.588Z,15.70
2022-09-16T03:11:30.547Z,15.70
2022-09-16T03:14:14.056Z,15.70
2022-09-16T03:16:52.298Z,15.70
2022-09-16T03:22:18.988Z,15.80
2022-09-16T03:24:51.897Z,15.80
2022-09-16T03:27:23.730Z,15.80
2022-09-16T03:29:56.869Z,15.70
2022-09-16T03:32:28.735Z,15.70
2022-09-16T03:35:02.095Z,15.70
2022-09-16T03:37:35.505Z,15.60
2022-09-16T03:40:09.165Z,15.60
2022-09-16T03:42:40.314Z,15.60
2022-09-16T03:45:11.233Z,15.60
2022-09-16T03:47:39.178Z,15.60
2022-09-16T03:50:07.945Z,15.60
2022-09-16T03:52:37.391Z,15.60
2022-09-16T03:55:05.770Z,15.60
2022-09-16T03:57:33.677Z,15.60
2022-09-16T04:00:02.070Z,15.70
2022-09-16T04:02:30.170Z,15.60
2022-09-16T04:04:58.259Z,15.70
2022-09-16T04:07:26.345Z,15.70
2022-09-16T04:09:55.622Z,15.70
2022-09-16T04:12:23.599Z,15.70
2022-09-16T04:14:51.773Z,15.70
2022-09-16T04:17:19.745Z,15.60
2022-09-16T04:19:47.726Z,15.60
2022-09-16T04:22:15.738Z,15.60
2022-09-16T04:24:43.735Z,15.70
2022-09-16T04:27:13.141Z,15.70
2022-09-16T04:29:41.035Z,15.70
2022-09-16T04:32:08.982Z,15.70
2022-09-16T04:34:36.877Z,15.80
2022-09-16T04:37:04.833Z,15.70
2022-09-16T04:39:32.873Z,15.70
2022-09-16T04:42:00.995Z,15.70
2022-09-16T04:44:31.097Z,15.70
2022-09-16T04:46:59.234Z,15.70
2022-09-16T04:49:29.292Z,15.70
2022-09-16T04:51:58.441Z,15.60
2022-09-16T04:54:30.404Z,15.60
2022-09-16T04:56:59.039Z,15.50
2022-09-16T04:59:27.901Z,15.50
2022-09-16T05:01:58.465Z,15.50
2022-09-16T05:04:30.233Z,15.40
2022-09-16T05:06:59.563Z,15.40
2022-09-16T05:09:36.397Z,15.40
2022-09-16T05:12:14.386Z,15.40
2022-09-16T05:14:51.581Z,15.30
2022-09-16T05:17:46.627Z,15.30
2022-09-16T05:20:25.132Z,15.30
2022-09-16T05:23:06.817Z,15.30
2022-09-16T05:25:42.058Z,15.30
2022-09-16T05:28:23.697Z,15.40
2022-09-16T05:31:00.091Z,15.40
2022-09-16T05:33:31.719Z,15.40
2022-09-16T05:36:06.543Z,15.40
2022-09-16T05:38:35.907Z,15.30
2022-09-16T05:41:06.667Z,15.30
2022-09-16T05:43:37.039Z,15.30
2022-09-16T05:46:06.664Z,15.20
2022-09-16T05:48:36.965Z,15.30
2022-09-16T05:51:07.125Z,15.30
2022-09-16T05:53:35.694Z,15.30
2022-09-16T05:56:06.556Z,15.40
2022-09-16T05:58:35.791Z,15.40
2022-09-16T06:01:06.057Z,15.30
2022-09-16T06:03:36.786Z,15.40
2022-09-16T06:06:07.159Z,15.40
2022-09-16T06:08:36.477Z,15.40
2022-09-16T06:11:06.857Z,15.50
2022-09-16T06:13:35.001Z,15.50
2022-09-16T06:16:04.155Z,15.60
2022-09-16T06:18:33.189Z,15.50
2022-09-16T06:21:05.746Z,15.50
2022-09-16T06:23:34.098Z,15.50
2022-09-16T06:26:03.090Z,15.50
2022-09-16T06:28:31.349Z,15.50
2022-09-16T06:31:04.139Z,15.50
2022-09-16T06:33:32.093Z,15.50
2022-09-16T06:36:06.245Z,15.40
2022-09-16T06:38:34.342Z,15.40
2022-09-16T06:41:03.240Z,15.50
2022-09-16T06:43:31.577Z,15.50
2022-09-16T06:46:00.543Z,15.60
2022-09-16T06:48:29.223Z,15.60
2022-09-16T06:51:02.914Z,15.60
2022-09-16T06:53:32.861Z,15.60
2022-09-16T06:56:01.710Z,15.50
2022-09-16T06:58:30.636Z,15.60
2022-09-16T07:00:58.629Z,15.50
2022-09-16T07:03:26.856Z,15.50
2022-09-16T07:05:58.681Z,15.60
2022-09-16T07:08:26.745Z,15.60
2022-09-16T07:11:00.239Z,15.60
2022-09-16T07:13:28.693Z,15.70
2022-09-16T07:16:16.223Z,15.60
2022-09-16T07:18:44.855Z,15.60
2022-09-16T07:21:14.706Z,15.60
2022-09-16T07:23:44.077Z,15.60
2022-09-16T07:26:15.781Z,15.60
2022-09-16T07:28:46.190Z,15.50
2022-09-16T07:31:17.065Z,15.60
2022-09-16T07:33:47.719Z,15.60
2022-09-16T07:36:18.101Z,15.60
2022-09-16T07:38:46.163Z,15.70
2022-09-16T07:41:17.021Z,15.70
2022-09-16T07:43:45.765Z,15.80
2022-09-16T07:46:16.699Z,15.90
2022-09-16T07:48:45.666Z,15.80
2022-09-16T07:51:15.878Z,15.90
2022-09-16T07:53:44.320Z,16.00
2022-09-16T07:56:14.621Z,16.00
2022-09-16T07:58:45.694Z,16.10
2022-09-16T08:01:15.750Z,16.00
2022-09-16T08:03:46.007Z,16.00
2022-09-16T08:06:16.708Z,16.10
2022-09-16T08:08:45.787Z,16.10
2022-09-16T08:11:15.162Z,16.20
2022-09-16T08:13:45.489Z,16.30
2022-09-16T08:16:17.772Z,16.20
2022-09-16T08:18:46.493Z,16.10
2022-09-16T08:21:16.868Z,16.00
2022-09-16T08:23:45.278Z,16.00
2022-09-16T08:26:14.389Z,16.00
2022-09-16T08:29:07.236Z,16.00
2022-09-16T08:31:35.331Z,16.00
2022-09-16T08:34:03.313Z,16.10
2022-09-16T08:36:33.232Z,16.00
2022-09-16T08:39:01.600Z,15.90
2022-09-16T08:41:47.545Z,15.90
2022-09-16T08:44:25.040Z,15.90
2022-09-16T08:46:55.911Z,16.00
2022-09-16T08:49:33.288Z,15.90
2022-09-16T08:52:05.124Z,16.00
2022-09-16T08:54:38.490Z,16.00
2022-09-16T08:57:12.327Z,16.00
2022-09-16T08:59:47.546Z,16.00
2022-09-16T09:02:29.375Z,16.10
2022-09-16T09:04:58.865Z,16.20
2022-09-16T09:07:37.794Z,16.20
2022-09-16T09:10:14.582Z,16.20
2022-09-16T09:12:50.427Z,16.20
2022-09-16T09:15:37.656Z,16.20
2022-09-16T09:18:22.949Z,16.10
2022-09-16T09:21:01.053Z,16.20
2022-09-16T09:23:53.591Z,16.20
2022-09-16T09:26:26.814Z,16.20
2022-09-16T09:29:19.128Z,16.20
2022-09-16T09:31:56.600Z,16.20
2022-09-16T09:34:39.620Z,16.10
2022-09-16T09:37:26.366Z,16.10
2022-09-16T09:40:04.557Z,16.10
2022-09-16T09:42:36.761Z,16.20
2022-09-16T09:45:14.088Z,16.20
2022-09-16T09:47:48.030Z,16.20
2022-09-16T09:50:20.879Z,16.10
2022-09-16T09:52:55.577Z,16.10
2022-09-16T09:55:26.043Z,16.20
2022-09-16T09:58:05.207Z,16.10
2022-09-16T10:00:33.689Z,16.10
2022-09-16T10:03:11.393Z,16.10
2022-09-16T10:05:39.521Z,16.10
2022-09-16T10:08:17.822Z,16.10
2022-09-16T10:10:50.583Z,16.00
2022-09-16T10:13:19.446Z,16.00
2022-09-16T10:15:51.939Z,16.00
2022-09-16T10:18:30.295Z,16.00
2022-09-16T10:21:04.251Z,16.10
2022-09-16T10:23:33.187Z,16.20
2022-09-16T10:26:19.098Z,16.20
2022-09-16T10:29:01.408Z,16.20
2022-09-16T10:31:34.499Z,16.20
2022-09-16T10:34:05.973Z,16.30
2022-09-16T10:36:36.070Z,16.40
2022-09-16T10:39:06.118Z,16.60
2022-09-16T10:41:41.796Z,16.80
2022-09-16T10:44:17.681Z,16.90
2022-09-16T10:46:53.681Z,17.10
2022-09-16T10:49:28.639Z,17.10
2022-09-16T10:51:56.838Z,17.10
2022-09-16T10:54:28.135Z,17.20
2022-09-16T10:56:56.106Z,17.10
2022-09-16T10:59:24.286Z,17.00
2022-09-16T11:02:04.086Z,16.90
2022-09-16T11:04:58.645Z,16.80
2022-09-16T11:07:37.673Z,15.50
2022-09-16T11:10:14.176Z,14.60
2022-09-16T11:13:08.871Z,14.00
2022-09-16T11:15:47.727Z,13.60
2022-09-16T11:18:26.755Z,13.30
2022-09-16T11:21:16.318Z,13.10
2022-09-16T11:23:57.511Z,12.80
2022-09-16T11:26:31.842Z,12.60
2022-09-16T11:29:14.196Z,12.30
2022-09-16T11:31:50.514Z,12.30
2022-09-16T11:34:34.485Z,12.40
2022-09-16T11:37:16.426Z,12.50
2022-09-16T11:40:05.972Z,12.50
2022-09-16T11:42:40.638Z,12.40
2022-09-16T11:45:31.114Z,12.40
2022-09-16T11:48:23.270Z,12.40
2022-09-16T11:50:56.818Z,12.30
2022-09-16T11:53:53.534Z,12.20
2022-09-16T11:56:30.993Z,12.20
2022-09-16T11:59:04.041Z,12.30
2022-09-16T12:01:37.026Z,12.40
2022-09-16T12:04:12.207Z,12.30
2022-09-16T12:06:47.403Z,12.30
2022-09-16T12:09:24.000Z,12.20
2022-09-16T12:11:55.585Z,12.10
2022-09-16T12:14:31.389Z,12.00
2022-09-16T12:17:02.889Z,12.00
2022-09-16T12:19:36.290Z,12.00
2022-09-16T12:22:10.836Z,12.10
2022-09-16T12:24:45.221Z,12.20
2022-09-16T12:27:38.764Z,12.30
2022-09-16T12:30:15.629Z,12.30
2022-09-16T12:32:56.422Z,12.40
2022-09-16T12:35:29.467Z,12.40
2022-09-16T12:37:58.850Z,12.50
2022-09-16T12:40:32.016Z,12.70
2022-09-16T12:43:27.414Z,12.70
2022-09-16T12:46:58.099Z,12.70
2022-09-16T12:50:14.110Z,12.80
2022-09-16T12:53:06.036Z,12.70
2022-09-16T12:55:50.605Z,12.70
2022-09-16T12:58:50.162Z,12.80
2022-09-16T13:01:22.969Z,12.80
2022-09-16T13:03:56.658Z,12.70
2022-09-16T13:06:28.139Z,12.70
2022-09-16T13:08:57.009Z,12.80
2022-09-16T13:14:25.350Z,12.90
2022-09-16T13:16:55.771Z,13.10
2022-09-16T13:19:35.165Z,13.30
2022-09-16T13:22:20.832Z,13.10
2022-09-16T13:24:52.807Z,13.10
2022-09-16T13:27:32.158Z,13.00
2022-09-16T13:30:15.749Z,12.90
2022-09-16T13:32:46.144Z,12.90
2022-09-16T13:35:36.330Z,12.80
2022-09-16T13:38:23.041Z,12.80
2022-09-16T13:40:56.697Z,13.00
2022-09-16T13:43:37.647Z,13.00
2022-09-16T13:46:10.752Z,13.20
2022-09-16T13:48:43.339Z,13.50
2022-09-16T13:51:17.746Z,13.70
2022-09-16T13:53:48.258Z,13.80
2022-09-16T13:56:51.761Z,13.90
2022-09-16T13:59:39.225Z,14.10
2022-09-16T14:02:17.951Z,14.20
2022-09-16T14:05:12.458Z,14.20
2022-09-16T14:07:47.899Z,14.20
2022-09-16T14:10:23.849Z,14.50
2022-09-16T14:13:01.159Z,14.70
2022-09-16T14:15:35.554Z,14.80
2022-09-16T14:18:04.937Z,14.90
2022-09-16T14:20:35.089Z,15.00
2022-09-16T14:23:04.782Z,15.30
2022-09-16T14:25:35.672Z,15.40
2022-09-16T14:28:17.130Z,15.40
2022-09-16T14:30:55.777Z,15.40
2022-09-16T14:33:28.491Z,15.40
2022-09-16T14:35:57.629Z,15.30
2022-09-16T14:38:45.064Z,15.30
2022-09-16T14:41:22.951Z,15.40
2022-09-16T14:43:51.411Z,15.40
2022-09-16T14:46:21.092Z,15.40
2022-09-16T14:48:49.897Z,15.40
2022-09-16T14:51:23.963Z,15.40
2022-09-16T14:54:11.712Z,15.40
2022-09-16T14:56:40.954Z,15.30
2022-09-16T14:59:13.421Z,15.10
2022-09-16T15:01:43.417Z,15.10
2022-09-16T15:04:18.340Z,15.20
2022-09-16T15:06:53.077Z,15.30
2022-09-16T15:09:27.804Z,15.40
2022-09-16T15:11:58.901Z,15.40
2022-09-16T15:14:27.711Z,15.30
2022-09-16T15:17:00.272Z,15.30
2022-09-16T15:19:32.760Z,15.20
2022-09-16T15:22:00.842Z,15.20
2022-09-16T15:24:33.272Z,15.10
2022-09-16T15:27:02.562Z,15.10
2022-09-16T15:29:33.869Z,15.10
2022-09-16T15:32:18.061Z,15.00
2022-09-16T15:34:46.571Z,15.00
2022-09-16T15:37:34.624Z,15.00
2022-09-16T15:40:22.521Z,15.00
2022-09-16T15:43:06.269Z,14.90
2022-09-16T15:45:34.249Z,14.80
2022-09-16T15:48:07.224Z,14.70
2022-09-16T15:50:43.705Z,14.60
2022-09-16T15:53:16.481Z,14.50
2022-09-16T15:55:53.589Z,14.60
2022-09-16T15:58:34.137Z,14.70
2022-09-16T16:01:20.023Z,14.70
2022-09-16T16:03:55.441Z,14.70
2022-09-16T16:06:52.812Z,14.50
2022-09-16T16:09:41.448Z,14.60
2022-09-16T16:12:16.196Z,14.50
2022-09-16T16:14:46.549Z,14.50
2022-09-16T16:17:17.318Z,14.40
2022-09-16T16:19:46.514Z,14.20
2022-09-16T16:22:17.606Z,14.20
2022-09-16T16:24:45.925Z,14.30
2022-09-16T16:27:14.038Z,14.30
2022-09-16T16:29:41.953Z,14.10
2022-09-16T16:32:11.518Z,14.10
2022-09-16T16:34:42.390Z,14.00
2022-09-16T16:37:28.008Z,14.00
2022-09-16T16:40:02.700Z,14.20
2022-09-16T16:42:31.133Z,14.10
2022-09-16T16:44:59.210Z,14.10
2022-09-16T16:47:27.387Z,14.10
2022-09-16T16:49:55.559Z,14.20
2022-09-16T16:52:23.619Z,14.10
2022-09-16T16:54:51.965Z,14.10
2022-09-16T16:57:21.261Z,14.00
2022-09-16T16:59:49.365Z,14.00
2022-09-16T17:02:17.411Z,14.00
2022-09-16T17:04:45.413Z,14.00
2022-09-16T17:07:28.604Z,14.10
2022-09-16T17:09:57.269Z,14.10
2022-09-16T17:12:27.657Z,14.00
2022-09-16T17:14:55.839Z,13.90
2022-09-16T17:17:28.914Z,13.90
2022-09-16T17:19:59.301Z,13.80
2022-09-16T17:22:27.329Z,13.70
2022-09-16T17:24:55.551Z,13.50
2022-09-16T17:27:26.939Z,13.50
2022-09-16T17:29:56.462Z,13.50
2022-09-16T17:32:24.901Z,13.40
2022-09-16T17:34:52.943Z,13.40
2022-09-16T17:37:20.985Z,13.50
2022-09-16T17:39:49.620Z,13.50
2022-09-16T17:42:17.901Z,13.60
2022-09-16T17:44:45.862Z,13.60
2022-09-16T17:47:15.601Z,13.70
2022-09-16T17:49:43.585Z,13.70
2022-09-16T17:52:11.476Z,13.70
2022-09-16T17:54:41.115Z,13.60
2022-09-16T17:57:08.985Z,13.60
2022-09-16T17:59:36.891Z,13.70
2022-09-16T18:02:04.943Z,13.70
2022-09-16T18:04:34.307Z,13.70
2022-09-16T18:07:02.694Z,13.80
2022-09-16T18:09:31.785Z,13.80
2022-09-16T18:11:59.754Z,13.70
2022-09-16T18:14:27.746Z,13.70
2022-09-16T18:16:56.099Z,13.60
2022-09-16T18:19:24.054Z,13.60
2022-09-16T18:21:53.378Z,13.50
2022-09-16T18:24:21.341Z,13.60
2022-09-16T18:26:49.445Z,13.70
2022-09-16T18:29:17.593Z,13.60
2022-09-16T18:31:47.481Z,13.60
2022-09-16T18:34:16.716Z,13.60
2022-09-16T18:36:45.164Z,13.70
2022-09-16T18:39:17.137Z,13.70
2022-09-16T18:41:46.531Z,13.70
2022-09-16T18:44:16.821Z,13.80
2022-09-16T18:46:44.978Z,13.90
2022-09-16T18:49:14.152Z,14.00
2022-09-16T18:51:48.553Z,13.90
2022-09-16T18:54:24.500Z,13.70
2022-09-16T18:56:53.073Z,13.70
2022-09-16T18:59:24.259Z,13.60
2022-09-16T19:01:54.158Z,13.60
2022-09-16T19:04:24.289Z,13.60
2022-09-16T19:06:54.278Z,13.60
2022-09-16T19:09:25.244Z,13.60
2022-09-16T19:11:54.536Z,13.60
2022-09-16T19:14:24.883Z,13.70
2022-09-16T19:16:53.836Z,13.80
2022-09-16T19:19:22.846Z,13.70
2022-09-16T19:21:50.857Z,13.80
2022-09-16T19:24:20.891Z,13.80
2022-09-16T19:26:51.980Z,13.80
2022-09-16T19:29:20.956Z,13.90
2022-09-16T19:31:51.640Z,13.90
2022-09-16T19:34:20.648Z,13.90
2022-09-16T19:36:48.670Z,13.90
2022-09-16T19:39:16.592Z,13.70
2022-09-16T19:41:45.110Z,13.80
2022-09-16T19:44:16.026Z,13.70
2022-09-16T19:46:46.798Z,13.80
2022-09-16T19:49:17.122Z,13.70
2022-09-16T19:51:45.115Z,13.80
2022-09-16T19:54:13.520Z,13.90
2022-09-16T19:56:41.746Z,13.90
2022-09-16T19:59:10.161Z,13.90
2022-09-16T20:01:39.832Z,13.90
2022-09-16T20:04:09.692Z,13.90
2022-09-16T20:06:39.882Z,13.90
2022-09-16T20:09:11.386Z,14.00
2022-09-16T20:11:41.190Z,13.90
2022-09-16T20:14:13.469Z,14.00
2022-09-16T20:16:43.411Z,14.00
2022-09-16T20:19:13.743Z,13.90
2022-09-16T20:21:42.734Z,13.90
2022-09-16T20:24:15.396Z,14.00
2022-09-16T20:26:43.421Z,14.00
2022-09-16T20:29:11.611Z,13.90
2022-09-16T20:31:39.768Z,13.80
2022-09-16T20:34:09.209Z,13.60
2022-09-16T20:36:39.160Z,13.60
2022-09-16T20:39:08.859Z,13.60
2022-09-16T20:41:38.285Z,13.70
2022-09-16T20:44:06.470Z,13.60
2022-09-16T20:46:36.380Z,13.60
2022-09-16T20:49:10.589Z,13.60
2022-09-16T20:51:38.611Z,13.60
2022-09-16T20:54:09.030Z,13.50
2022-09-16T20:56:39.256Z,13.40
2022-09-16T20:59:08.122Z,13.50
2022-09-16T21:01:37.080Z,13.50
2022-09-16T21:04:07.041Z,13.50
2022-09-16T21:06:37.343Z,13.40
2022-09-16T21:09:08.725Z,13.50
2022-09-16T21:11:37.303Z,13.60
2022-09-16T21:14:07.643Z,13.60
2022-09-16T21:16:37.299Z,13.60
2022-09-16T21:19:09.191Z,13.50
2022-09-16T21:21:40.876Z,13.40
2022-09-16T21:24:09.826Z,13.40
2022-09-16T21:26:40.190Z,13.50
2022-09-16T21:29:10.999Z,13.50
2022-09-16T21:31:40.648Z,13.60
2022-09-16T21:34:12.999Z,13.70
2022-09-16T21:36:44.246Z,13.70
2022-09-16T21:39:13.608Z,13.70
2022-09-16T21:41:42.104Z,13.80
2022-09-16T21:44:11.651Z,13.80
2022-09-16T21:46:42.910Z,13.80
2022-09-16T21:49:22.695Z,13.80
2022-09-16T21:51:53.158Z,13.90
2022-09-16T21:54:21.730Z,13.90
2022-09-16T21:56:50.519Z,13.80
2022-09-16T21:59:20.377Z,13.80
2022-09-16T22:01:49.310Z,13.80
2022-09-16T22:04:19.861Z,13.80
2022-09-16T22:06:49.298Z,13.70
2022-09-16T22:09:18.858Z,13.80
2022-09-16T22:11:47.301Z,13.80
2022-09-16T22:14:15.621Z,13.80
2022-09-16T22:16:44.216Z,13.80
2022-09-16T22:19:13.667Z,13.70
2022-09-16T22:21:43.144Z,13.80
2022-09-16T22:24:11.797Z,13.70
2022-09-16T22:26:41.332Z,13.70
2022-09-16T22:29:09.367Z,13.70
2022-09-16T22:31:39.109Z,13.70
2022-09-16T22:34:07.696Z,13.70
2022-09-16T22:36:37.408Z,13.70
2022-09-16T22:39:07.713Z,13.60
2022-09-16T22:41:35.986Z,13.60
2022-09-16T22:44:05.884Z,13.60
2022-09-16T22:46:36.549Z,13.60
2022-09-16T22:49:05.298Z,13.60
2022-09-16T22:51:33.215Z,13.60
2022-09-16T22:54:01.446Z,13.50
2022-09-16T22:56:32.200Z,13.50
2022-09-16T22:59:02.217Z,13.50
2022-09-16T23:01:33.394Z,13.60
2022-09-16T23:04:03.100Z,13.60
2022-09-16T23:06:32.917Z,13.60
2022-09-16T23:09:01.172Z,13.60
2022-09-16T23:11:32.322Z,13.60
2022-09-16T23:14:01.458Z,13.60
2022-09-16T23:16:32.781Z,13.50
2022-09-16T23:19:02.752Z,13.60
2022-09-16T23:21:31.372Z,13.50
2022-09-16T23:24:02.660Z,13.50
2022-09-16T23:26:33.083Z,13.50
2022-09-16T23:29:02.683Z,13.40
2022-09-16T23:31:33.953Z,13.50
2022-09-16T23:34:07.411Z,13.50
2022-09-16T23:36:37.694Z,13.40
2022-09-16T23:39:06.663Z,13.50
2022-09-16T23:41:34.913Z,13.50
2022-09-16T23:44:03.613Z,13.60
2022-09-16T23:46:34.249Z,13.60
2022-09-16T23:49:02.480Z,13.60
2022-09-16T23:51:32.157Z,13.60
2022-09-16T23:54:01.081Z,13.60
2022-09-16T23:56:29.197Z,13.70
2022-09-16T23:59:00.716Z,13.70
